createdAt,value
2023-04-16T00:01:52.175Z,10.83
2023-04-16T00:04:25.759Z,10.83
2023-04-16T00:06:58.629Z,10.82
2023-04-16T00:09:31.687Z,10.83
2023-04-16T00:12:04.666Z,10.84
2023-04-16T00:14:38.811Z,10.84
2023-04-16T00:17:12.210Z,10.85
2023-04-16T00:19:45.126Z,10.84
2023-04-16T00:22:17.805Z,10.85
2023-04-16T00:24:50.648Z,10.87
2023-04-16T00:27:23.693Z,10.86
2023-04-16T00:29:57.837Z,10.87
2023-04-16T00:32:31.926Z,10.88
2023-04-16T00:35:05.055Z,10.90
2023-04-16T00:37:37.856Z,10.92
2023-04-16T00:40:10.868Z,10.93
2023-04-16T00:42:43.640Z,10.95
2023-04-16T00:45:17.909Z,10.94
2023-04-16T00:47:51.037Z,10.96
2023-04-16T00:50:24.486Z,10.98
2023-04-16T00:52:58.177Z,11.00
2023-04-16T00:55:31.012Z,11.01
2023-04-16T00:58:04.413Z,11.01
2023-04-16T01:00:38.918Z,11.00
2023-04-16T01:03:12.125Z,11.00
2023-04-16T01:05:46.058Z,11.00
2023-04-16T01:08:19.236Z,11.00
2023-04-16T01:10:51.935Z,11.01
2023-04-16T01:13:24.702Z,11.00
2023-04-16T01:15:59.092Z,11.00
2023-04-16T01:18:31.812Z,10.98
2023-04-16T01:21:06.812Z,11.00
2023-04-16T01:23:39.646Z,11.00
2023-04-16T01:26:12.995Z,10.98
2023-04-16T01:28:45.764Z,10.96
2023-04-16T01:31:18.980Z,10.98
2023-04-16T01:33:52.111Z,10.95
2023-04-16T01:36:26.965Z,10.95
2023-04-16T01:39:00.014Z,10.95
2023-04-16T01:41:33.113Z,10.96
2023-04-16T01:44:06.029Z,10.96
2023-04-16T01:46:39.429Z,10.98
2023-04-16T01:49:12.779Z,10.96
2023-04-16T01:51:47.274Z,10.98
2023-04-16T01:54:20.464Z,10.98
2023-04-16T01:56:53.562Z,10.98
2023-04-16T01:59:26.365Z,10.98
2023-04-16T02:02:00.898Z,11.01
2023-04-16T02:04:33.880Z,11.01
2023-04-16T02:07:10.509Z,10.98
2023-04-16T02:09:43.319Z,11.00
2023-04-16T02:12:16.519Z,10.98
2023-04-16T02:14:49.383Z,10.98
2023-04-16T02:17:22.291Z,10.98
2023-04-16T02:19:55.046Z,10.98
2023-04-16T02:22:29.627Z,10.97
2023-04-16T02:25:02.394Z,10.97
2023-04-16T02:27:35.508Z,10.96
2023-04-16T02:30:08.976Z,10.96
2023-04-16T02:32:41.848Z,10.95
2023-04-16T02:35:14.714Z,10.95
2023-04-16T02:37:49.287Z,10.95
2023-04-16T02:40:22.145Z,10.96
2023-04-16T02:42:55.013Z,10.94
2023-04-16T02:45:27.811Z,10.96
2023-04-16T02:48:01.341Z,10.95
2023-04-16T02:50:34.167Z,10.96
2023-04-16T02:53:08.503Z,10.95
2023-04-16T02:55:41.520Z,10.98
2023-04-16T02:58:14.729Z,10.96
2023-04-16T03:00:47.562Z,10.96
2023-04-16T03:03:20.771Z,10.95
2023-04-16T03:05:53.488Z,10.95
2023-04-16T03:08:28.033Z,10.96
2023-04-16T03:11:00.797Z,10.95
2023-04-16T03:13:33.585Z,10.97
2023-04-16T03:16:06.622Z,10.96
2023-04-16T03:18:39.713Z,10.97
2023-04-16T03:21:12.965Z,10.96
2023-04-16T03:23:47.182Z,10.98
2023-04-16T03:26:19.859Z,10.98
2023-04-16T03:28:52.619Z,11.01
2023-04-16T03:31:25.735Z,11.00
2023-04-16T03:33:58.604Z,11.01
2023-04-16T03:36:31.503Z,11.01
2023-04-16T03:39:05.718Z,11.02
2023-04-16T03:41:40.910Z,11.02
2023-04-16T03:44:13.641Z,11.02
2023-04-16T03:46:46.624Z,11.02
2023-04-16T03:49:19.434Z,11.02
2023-04-16T03:51:52.365Z,11.02
2023-04-16T03:54:27.118Z,11.02
2023-04-16T03:57:00.197Z,11.03
2023-04-16T03:59:33.371Z,11.02
2023-04-16T04:02:06.452Z,11.02
2023-04-16T04:04:39.405Z,11.01
2023-04-16T04:07:12.248Z,11.00
2023-04-16T04:09:46.455Z,11.00
2023-04-16T04:12:19.110Z,10.99
2023-04-16T04:14:51.916Z,10.98
2023-04-16T04:17:25.353Z,10.95
2023-04-16T04:20:01.431Z,10.97
2023-04-16T04:22:34.685Z,10.94
2023-04-16T04:25:09.268Z,10.94
2023-04-16T04:27:41.941Z,10.94
2023-04-16T04:30:14.709Z,10.93
2023-04-16T04:32:47.541Z,10.93
2023-04-16T04:35:21.132Z,10.92
2023-04-16T04:37:53.909Z,10.93
2023-04-16T04:40:28.565Z,10.93
2023-04-16T04:43:01.421Z,10.92
2023-04-16T04:45:34.324Z,10.91
2023-04-16T04:48:07.154Z,10.90
2023-04-16T04:50:41.112Z,10.92
2023-04-16T04:53:14.981Z,10.92
2023-04-16T04:55:53.105Z,10.92
2023-04-16T04:58:27.295Z,10.92
2023-04-16T05:01:00.793Z,10.91
2023-04-16T05:03:33.870Z,10.92
2023-04-16T05:06:06.902Z,10.91
2023-04-16T05:08:40.008Z,10.93
2023-04-16T05:11:14.473Z,10.93
2023-04-16T05:13:47.317Z,10.93
2023-04-16T05:16:20.190Z,10.94
2023-04-16T05:18:53.347Z,10.95
2023-04-16T05:21:26.949Z,10.98
2023-04-16T05:24:00.382Z,10.99
2023-04-16T05:26:34.743Z,11.01
2023-04-16T05:29:07.844Z,11.02
2023-04-16T05:31:41.156Z,11.01
2023-04-16T05:34:14.155Z,11.04
2023-04-16T05:36:47.136Z,11.04
2023-04-16T05:39:20.830Z,11.05
2023-04-16T05:41:55.369Z,11.06
2023-04-16T05:44:28.121Z,11.08
2023-04-16T05:47:01.071Z,11.09
2023-04-16T05:49:33.914Z,11.10
2023-04-16T05:52:07.571Z,11.11
2023-04-16T05:54:40.335Z,11.12
2023-04-16T05:57:14.939Z,11.15
2023-04-16T05:59:47.837Z,11.16
2023-04-16T06:02:20.977Z,11.19
2023-04-16T06:04:53.696Z,11.20
2023-04-16T06:07:26.429Z,11.22
2023-04-16T06:09:59.106Z,11.23
2023-04-16T06:12:33.332Z,11.26
2023-04-16T06:15:06.920Z,11.29
2023-04-16T06:17:40.219Z,11.31
2023-04-16T06:20:13.544Z,11.33
2023-04-16T06:22:46.333Z,11.36
2023-04-16T06:25:19.196Z,11.39
2023-04-16T06:27:53.692Z,11.43
2023-04-16T06:30:26.905Z,11.46
2023-04-16T06:33:00.064Z,11.48
2023-04-16T06:35:32.980Z,11.50
2023-04-16T06:38:05.962Z,11.54
2023-04-16T06:40:39.461Z,11.56
2023-04-16T06:43:14.067Z,11.60
2023-04-16T06:45:47.135Z,11.62
2023-04-16T06:48:19.957Z,11.65
2023-04-16T06:50:52.697Z,11.68
2023-04-16T06:53:25.605Z,11.71
2023-04-16T06:55:58.994Z,11.75
2023-04-16T06:58:33.364Z,11.77
2023-04-16T07:01:06.292Z,11.79
2023-04-16T07:03:39.317Z,11.81
2023-04-16T07:06:12.708Z,11.83
2023-04-16T07:08:45.466Z,11.84
2023-04-16T07:11:19.309Z,11.87
2023-04-16T07:13:54.524Z,11.89
2023-04-16T07:16:27.282Z,11.90
2023-04-16T07:19:00.072Z,11.91
2023-04-16T07:21:32.845Z,11.95
2023-04-16T07:24:05.956Z,11.95
2023-04-16T07:26:39.236Z,11.99
2023-04-16T07:29:13.850Z,12.01
2023-04-16T07:31:46.714Z,12.04
2023-04-16T07:34:19.723Z,12.05
2023-04-16T07:36:52.790Z,12.06
2023-04-16T07:39:26.111Z,12.05
2023-04-16T07:41:58.920Z,12.06
2023-04-16T07:44:33.298Z,12.03
2023-04-16T07:47:06.160Z,12.02
2023-04-16T07:49:39.228Z,11.99
2023-04-16T07:52:13.608Z,11.97
2023-04-16T07:54:46.434Z,11.93
2023-04-16T07:57:19.470Z,11.91
2023-04-16T07:59:53.700Z,11.87
2023-04-16T08:02:28.023Z,11.85
2023-04-16T08:05:01.576Z,11.80
2023-04-16T08:07:34.968Z,11.80
2023-04-16T08:10:08.735Z,11.76
2023-04-16T08:12:41.519Z,11.73
2023-04-16T08:15:15.728Z,11.70
2023-04-16T08:17:48.980Z,11.66
2023-04-16T08:20:21.847Z,11.61
2023-04-16T08:22:54.846Z,11.57
2023-04-16T08:25:27.711Z,11.52
2023-04-16T08:28:00.895Z,11.47
2023-04-16T08:30:35.464Z,11.48
2023-04-16T08:33:08.335Z,11.45
2023-04-16T08:35:41.231Z,11.46
2023-04-16T08:38:13.960Z,11.47
2023-04-16T08:40:46.968Z,11.47
2023-04-16T08:43:20.381Z,11.47
2023-04-16T08:45:56.624Z,11.47
2023-04-16T08:48:31.816Z,11.46
2023-04-16T08:51:04.661Z,11.46
2023-04-16T08:53:43.410Z,11.46
2023-04-16T08:56:17.080Z,11.47
2023-04-16T08:58:51.669Z,11.46
2023-04-16T09:01:26.702Z,11.47
2023-04-16T09:04:01.778Z,11.48
2023-04-16T09:06:35.141Z,11.46
2023-04-16T09:09:08.623Z,11.44
2023-04-16T09:11:41.606Z,11.41
2023-04-16T09:14:14.941Z,11.39
2023-04-16T09:16:49.246Z,11.39
2023-04-16T09:19:21.988Z,11.41
2023-04-16T09:21:55.232Z,11.43
2023-04-16T09:24:28.306Z,11.45
2023-04-16T09:27:02.152Z,11.48
2023-04-16T09:29:36.279Z,11.53
2023-04-16T09:32:11.477Z,11.58
2023-04-16T09:34:57.749Z,11.63
2023-04-16T09:37:31.682Z,11.68
2023-04-16T09:40:05.854Z,11.74
2023-04-16T09:42:38.997Z,11.79
2023-04-16T09:45:12.652Z,11.85
2023-04-16T09:47:47.569Z,11.91
2023-04-16T09:50:21.322Z,11.94
2023-04-16T09:52:54.230Z,11.99
2023-04-16T09:55:28.432Z,12.03
2023-04-16T09:58:01.987Z,12.07
2023-04-16T10:00:34.937Z,12.14
2023-04-16T10:03:09.586Z,12.22
2023-04-16T10:05:43.011Z,12.28
2023-04-16T10:08:16.020Z,12.38
2023-04-16T10:10:48.988Z,12.45
2023-04-16T10:13:22.044Z,12.56
2023-04-16T10:15:56.802Z,12.66
2023-04-16T10:18:31.941Z,12.75
2023-04-16T10:21:05.414Z,12.84
2023-04-16T10:23:40.005Z,12.94
2023-04-16T10:26:12.809Z,13.00
2023-04-16T10:28:46.426Z,13.05
2023-04-16T10:31:19.387Z,13.08
2023-04-16T10:33:53.909Z,13.10
2023-04-16T10:36:27.963Z,13.09
2023-04-16T10:39:01.196Z,13.09
2023-04-16T10:41:34.642Z,13.06
2023-04-16T10:44:09.950Z,13.05
2023-04-16T10:46:43.434Z,13.05
2023-04-16T10:49:19.350Z,13.04
2023-04-16T10:51:55.978Z,13.05
2023-04-16T10:54:29.610Z,13.08
2023-04-16T10:57:04.807Z,13.14
2023-04-16T10:59:38.989Z,13.21
2023-04-16T11:02:14.322Z,13.28
2023-04-16T11:04:50.820Z,13.36
2023-04-16T11:07:32.562Z,13.43
2023-04-16T11:10:06.161Z,13.48
2023-04-16T11:12:39.483Z,13.53
2023-04-16T11:15:13.131Z,13.57
2023-04-16T11:17:46.766Z,13.64
2023-04-16T11:20:21.776Z,13.66
2023-04-16T11:22:55.572Z,13.70
2023-04-16T11:25:29.943Z,13.73
2023-04-16T11:28:03.449Z,13.76
2023-04-16T11:30:36.719Z,13.78
2023-04-16T11:33:10.161Z,13.80
2023-04-16T11:35:46.163Z,13.82
2023-04-16T11:38:19.787Z,13.82
2023-04-16T11:40:54.548Z,13.82
2023-04-16T11:43:30.393Z,13.80
2023-04-16T11:46:10.313Z,13.80
2023-04-16T11:48:54.135Z,13.75
2023-04-16T11:51:28.791Z,13.73
2023-04-16T11:54:01.952Z,13.70
2023-04-16T11:56:36.129Z,13.68
2023-04-16T11:59:13.435Z,13.62
2023-04-16T12:01:50.696Z,13.55
2023-04-16T12:04:25.201Z,13.51
2023-04-16T12:07:12.690Z,13.45
2023-04-16T12:09:45.498Z,13.43
2023-04-16T12:12:27.571Z,13.43
2023-04-16T12:15:03.640Z,13.45
2023-04-16T12:17:37.257Z,13.50
2023-04-16T12:20:11.203Z,13.61
2023-04-16T12:22:47.920Z,13.71
2023-04-16T12:25:21.196Z,13.83
2023-04-16T12:27:56.077Z,13.97
2023-04-16T12:30:31.013Z,14.09
2023-04-16T12:33:16.693Z,14.20
2023-04-16T12:35:49.960Z,14.29
2023-04-16T12:38:25.618Z,14.33
2023-04-16T12:40:58.528Z,14.34
2023-04-16T12:43:31.297Z,14.33
2023-04-16T12:46:04.570Z,14.29
2023-04-16T12:48:38.015Z,14.25
2023-04-16T12:51:10.946Z,14.19
2023-04-16T12:53:45.140Z,14.13
2023-04-16T12:56:17.956Z,14.06
2023-04-16T12:58:52.053Z,13.99
2023-04-16T13:01:25.041Z,13.94
2023-04-16T13:03:58.136Z,13.89
2023-04-16T13:06:32.656Z,13.82
2023-04-16T13:09:09.925Z,13.76
2023-04-16T13:11:42.975Z,13.74
2023-04-16T13:14:16.070Z,13.70
2023-04-16T13:16:48.835Z,13.72
2023-04-16T13:19:21.637Z,13.75
2023-04-16T13:21:54.632Z,13.84
2023-04-16T13:24:28.987Z,13.94
2023-04-16T13:27:01.805Z,14.04
2023-04-16T13:29:36.713Z,14.17
2023-04-16T13:32:13.785Z,14.24
2023-04-16T13:34:47.313Z,14.30
2023-04-16T13:37:20.389Z,14.35
2023-04-16T13:39:55.037Z,14.37
2023-04-16T13:42:28.824Z,14.39
2023-04-16T13:45:02.280Z,14.35
2023-04-16T13:47:35.382Z,14.35
2023-04-16T13:50:08.453Z,14.32
2023-04-16T13:52:41.728Z,14.32
2023-04-16T13:55:19.292Z,14.30
2023-04-16T13:57:53.407Z,14.27
2023-04-16T14:00:27.632Z,14.24
2023-04-16T14:03:00.744Z,14.21
2023-04-16T14:05:33.931Z,14.18
2023-04-16T14:08:07.104Z,14.18
2023-04-16T14:10:41.946Z,14.15
2023-04-16T14:13:14.847Z,14.15
2023-04-16T14:15:48.055Z,14.13
2023-04-16T14:18:20.834Z,14.13
2023-04-16T14:20:53.872Z,14.15
2023-04-16T14:23:27.187Z,14.19
2023-04-16T14:26:01.406Z,14.22
2023-04-16T14:28:37.007Z,14.27
2023-04-16T14:31:10.079Z,14.28
2023-04-16T14:33:42.861Z,14.31
2023-04-16T14:36:15.857Z,14.30
2023-04-16T14:38:48.936Z,14.31
2023-04-16T14:41:23.261Z,14.32
2023-04-16T14:43:56.308Z,14.31
2023-04-16T14:46:29.097Z,14.29
2023-04-16T14:49:02.155Z,14.27
2023-04-16T14:51:35.142Z,14.25
2023-04-16T14:54:08.294Z,14.22
2023-04-16T14:56:42.571Z,14.18
2023-04-16T14:59:18.504Z,14.15
2023-04-16T15:01:51.730Z,14.12
2023-04-16T15:04:25.563Z,14.05
2023-04-16T15:06:59.308Z,13.97
2023-04-16T15:09:32.766Z,13.94
2023-04-16T15:12:07.213Z,13.88
2023-04-16T15:14:40.584Z,13.85
2023-04-16T15:17:13.950Z,13.82
2023-04-16T15:19:47.044Z,13.77
2023-04-16T15:22:20.211Z,13.74
2023-04-16T15:24:54.138Z,13.72
2023-04-16T15:27:30.818Z,13.70
2023-04-16T15:30:03.977Z,13.68
2023-04-16T15:32:37.080Z,13.67
2023-04-16T15:35:11.454Z,13.63
2023-04-16T15:37:44.385Z,13.60
2023-04-16T15:40:19.040Z,13.57
2023-04-16T15:42:53.278Z,13.54
2023-04-16T15:45:26.674Z,13.51
2023-04-16T15:47:59.561Z,13.48
2023-04-16T15:50:32.965Z,13.43
2023-04-16T15:53:06.795Z,13.41
2023-04-16T15:55:39.525Z,13.38
2023-04-16T15:58:16.109Z,13.35
2023-04-16T16:00:50.244Z,13.33
2023-04-16T16:03:23.220Z,13.29
2023-04-16T16:05:59.371Z,13.27
2023-04-16T16:08:35.457Z,13.23
2023-04-16T16:11:08.421Z,13.19
2023-04-16T16:13:43.750Z,13.15
2023-04-16T16:16:19.049Z,13.10
2023-04-16T16:18:52.038Z,13.06
2023-04-16T16:21:24.880Z,13.02
2023-04-16T16:23:58.206Z,12.98
2023-04-16T16:26:31.009Z,12.96
2023-04-16T16:29:05.265Z,12.91
2023-04-16T16:31:38.552Z,12.88
2023-04-16T16:34:20.102Z,12.84
2023-04-16T16:36:53.790Z,12.81
2023-04-16T16:39:26.787Z,12.77
2023-04-16T16:41:59.583Z,12.75
2023-04-16T16:44:33.911Z,12.71
2023-04-16T16:47:06.985Z,12.69
2023-04-16T16:49:39.841Z,12.67
2023-04-16T16:52:12.811Z,12.66
2023-04-16T16:54:45.952Z,12.64
2023-04-16T16:57:19.348Z,12.62
2023-04-16T16:59:55.485Z,12.59
2023-04-16T17:02:28.768Z,12.58
2023-04-16T17:05:01.845Z,12.54
2023-04-16T17:07:34.694Z,12.51
2023-04-16T17:10:07.895Z,12.51
2023-04-16T17:12:41.003Z,12.46
2023-04-16T17:15:15.160Z,12.43
2023-04-16T17:17:48.711Z,12.38
2023-04-16T17:20:21.664Z,12.33
2023-04-16T17:22:54.549Z,12.30
2023-04-16T17:25:27.353Z,12.25
2023-04-16T17:28:00.825Z,12.25
2023-04-16T17:30:34.962Z,12.26
2023-04-16T17:33:08.176Z,12.25
2023-04-16T17:35:41.553Z,12.26
2023-04-16T17:38:14.556Z,12.28
2023-04-16T17:40:47.497Z,12.30
2023-04-16T17:43:20.233Z,12.31
2023-04-16T17:45:54.663Z,12.32
2023-04-16T17:48:27.662Z,12.35
2023-04-16T17:51:00.566Z,12.35
2023-04-16T17:53:33.244Z,12.35
2023-04-16T17:56:06.381Z,12.35
2023-04-16T17:58:39.400Z,12.36
2023-04-16T18:01:14.075Z,12.35
2023-04-16T18:03:47.326Z,12.38
2023-04-16T18:06:21.054Z,12.37
2023-04-16T18:08:53.844Z,12.38
2023-04-16T18:11:28.863Z,12.36
2023-04-16T18:14:03.232Z,12.36
2023-04-16T18:16:37.412Z,12.37
2023-04-16T18:19:10.162Z,12.36
2023-04-16T18:21:43.003Z,12.35
2023-04-16T18:24:16.036Z,12.35
2023-04-16T18:26:49.226Z,12.35
2023-04-16T18:29:24.817Z,12.33
2023-04-16T18:32:00.325Z,12.30
2023-04-16T18:34:34.850Z,12.29
2023-04-16T18:37:08.071Z,12.26
2023-04-16T18:39:41.144Z,12.24
2023-04-16T18:42:14.290Z,12.22
2023-04-16T18:44:52.423Z,12.21
2023-04-16T18:47:29.299Z,12.20
2023-04-16T18:50:02.066Z,12.21
2023-04-16T18:52:35.677Z,12.18
2023-04-16T18:55:08.981Z,12.18
2023-04-16T18:57:41.869Z,12.16
2023-04-16T19:00:15.751Z,12.16
2023-04-16T19:02:50.169Z,12.15
2023-04-16T19:05:23.140Z,12.14
2023-04-16T19:07:55.978Z,12.13
2023-04-16T19:10:28.670Z,12.13
2023-04-16T19:13:01.807Z,12.12
2023-04-16T19:15:35.072Z,12.13
2023-04-16T19:18:09.682Z,12.14
2023-04-16T19:20:42.426Z,12.14
2023-04-16T19:23:15.514Z,12.13
2023-04-16T19:25:49.836Z,12.14
2023-04-16T19:28:23.132Z,12.15
2023-04-16T19:30:56.298Z,12.15
2023-04-16T19:33:31.462Z,12.14
2023-04-16T19:36:04.550Z,12.14
2023-04-16T19:38:37.420Z,12.14
2023-04-16T19:41:10.296Z,12.14
2023-04-16T19:43:43.215Z,12.15
2023-04-16T19:46:17.259Z,12.13
2023-04-16T19:48:51.461Z,12.13
2023-04-16T19:51:24.749Z,12.13
2023-04-16T19:53:59.004Z,12.11
2023-04-16T19:56:31.889Z,12.12
2023-04-16T19:59:05.366Z,12.12
2023-04-16T20:01:38.364Z,12.11
2023-04-16T20:04:13.242Z,12.11
2023-04-16T20:06:46.712Z,12.09
2023-04-16T20:09:20.374Z,12.08
2023-04-16T20:11:53.450Z,12.07
2023-04-16T20:14:26.256Z,12.04
2023-04-16T20:16:59.416Z,12.04
2023-04-16T20:19:38.086Z,12.02
2023-04-16T20:22:10.887Z,12.02
2023-04-16T20:24:47.701Z,12.00
2023-04-16T20:27:21.044Z,12.01
2023-04-16T20:29:54.443Z,11.99
2023-04-16T20:32:28.002Z,12.00
2023-04-16T20:35:04.458Z,11.98
2023-04-16T20:37:42.246Z,11.99
2023-04-16T20:40:18.844Z,11.97
2023-04-16T20:42:54.837Z,11.97
2023-04-16T20:45:32.075Z,11.97
2023-04-16T20:48:05.276Z,11.96
2023-04-16T20:50:39.659Z,11.94
2023-04-16T20:53:13.124Z,11.95
2023-04-16T20:55:45.904Z,11.93
2023-04-16T20:58:18.674Z,11.92
2023-04-16T21:00:51.933Z,11.91
2023-04-16T21:03:25.355Z,11.90
2023-04-16T21:05:59.879Z,11.91
2023-04-16T21:08:32.737Z,11.89
2023-04-16T21:11:05.536Z,11.88
2023-04-16T21:13:38.309Z,11.88
2023-04-16T21:16:13.690Z,11.86
2023-04-16T21:18:46.512Z,11.86
2023-04-16T21:21:21.003Z,11.86
2023-04-16T21:23:53.670Z,11.86
2023-04-16T21:26:26.601Z,11.87
2023-04-16T21:28:59.420Z,11.86
2023-04-16T21:31:32.370Z,11.84
2023-04-16T21:34:05.153Z,11.86
2023-04-16T21:36:39.297Z,11.84
2023-04-16T21:39:12.666Z,11.84
2023-04-16T21:41:45.716Z,11.84
2023-04-16T21:44:18.914Z,11.85
2023-04-16T21:46:51.761Z,11.83
2023-04-16T21:49:24.519Z,11.83
2023-04-16T21:51:59.346Z,11.81
2023-04-16T21:54:32.370Z,11.82
2023-04-16T21:57:05.176Z,11.84
2023-04-16T21:59:38.238Z,11.85
2023-04-16T22:02:11.156Z,11.83
2023-04-16T22:04:43.895Z,11.84
2023-04-16T22:07:20.832Z,11.83
2023-04-16T22:09:53.660Z,11.84
2023-04-16T22:12:26.404Z,11.82
2023-04-16T22:15:02.702Z,11.82
2023-04-16T22:17:36.270Z,11.80
2023-04-16T22:20:12.316Z,11.81
2023-04-16T22:22:46.767Z,11.82
2023-04-16T22:25:19.652Z,11.80
2023-04-16T22:27:53.105Z,11.82
2023-04-16T22:30:25.760Z,11.82
2023-04-16T22:32:58.686Z,11.80
2023-04-16T22:35:31.943Z,11.81
2023-04-16T22:38:07.799Z,11.81
2023-04-16T22:40:40.735Z,11.81
2023-04-16T22:43:13.893Z,11.81
2023-04-16T22:45:48.003Z,11.81
2023-04-16T22:48:20.830Z,11.82
2023-04-16T22:50:53.564Z,11.80
2023-04-16T22:53:27.676Z,11.82
2023-04-16T22:56:00.543Z,11.81
2023-04-16T22:58:33.297Z,11.80
2023-04-16T23:01:06.710Z,11.80
2023-04-16T23:03:39.692Z,11.80
2023-04-16T23:06:12.490Z,11.81
2023-04-16T23:08:46.606Z,11.79
2023-04-16T23:11:19.299Z,11.81
2023-04-16T23:13:52.601Z,11.80
2023-04-16T23:16:26.088Z,11.81
2023-04-16T23:18:58.956Z,11.80
2023-04-16T23:21:32.600Z,11.80
2023-04-16T23:24:07.365Z,11.82
2023-04-16T23:26:40.061Z,11.83
2023-04-16T23:29:13.245Z,11.82
2023-04-16T23:31:46.134Z,11.83
2023-04-16T23:34:19.017Z,11.83
2023-04-16T23:36:51.850Z,11.80
2023-04-16T23:39:26.407Z,11.80
2023-04-16T23:41:59.334Z,11.81
2023-04-16T23:44:32.510Z,11.79
2023-04-16T23:47:05.560Z,11.81
2023-04-16T23:49:38.491Z,11.81
2023-04-16T23:52:11.282Z,11.81
2023-04-16T23:54:45.769Z,11.81
2023-04-16T23:57:18.463Z,11.81
2023-04-16T23:59:51.582Z,11.81
